createdAt,value
2022-09-18T00:01:36.612Z,10.17
2022-09-18T00:05:38.285Z,10.20
2022-09-18T00:09:46.743Z,10.21
2022-09-18T00:13:48.850Z,10.22
2022-09-18T00:17:50.585Z,10.25
2022-09-18T00:21:52.025Z,10.20
2022-09-18T00:25:53.473Z,10.24
2022-09-18T00:30:01.775Z,10.20
2022-09-18T00:34:14.469Z,10.23
2022-09-18T00:38:16.080Z,10.27
2022-09-18T00:42:25.861Z,10.31
2022-09-18T00:46:38.760Z,10.28
2022-09-18T00:50:46.717Z,10.32
2022-09-18T00:54:50.683Z,10.33
2022-09-18T00:58:52.001Z,10.35
2022-09-18T01:02:53.997Z,10.36
2022-09-18T01:06:58.587Z,10.38
2022-09-18T01:11:00.137Z,10.39
2022-09-18T01:15:11.217Z,10.37
2022-09-18T01:19:15.911Z,10.39
2022-09-18T01:23:36.197Z,10.36
2022-09-18T01:27:49.876Z,10.39
2022-09-18T01:32:07.841Z,10.34
2022-09-18T01:36:11.790Z,10.35
2022-09-18T01:40:20.078Z,10.39
2022-09-18T01:44:23.400Z,10.41
2022-09-18T01:48:38.744Z,10.40
2022-09-18T01:52:43.973Z,10.38
2022-09-18T01:56:48.302Z,10.34
2022-09-18T02:00:57.689Z,10.36
2022-09-18T02:05:00.575Z,10.34
2022-09-18T02:09:02.698Z,10.31
2022-09-18T02:13:11.817Z,10.27
2022-09-18T02:17:28.869Z,10.25
2022-09-18T02:21:30.592Z,10.24
2022-09-18T02:25:52.192Z,10.23
2022-09-18T02:29:54.071Z,10.21
2022-09-18T02:34:01.980Z,10.15
2022-09-18T02:38:14.029Z,10.13
2022-09-18T02:42:23.938Z,10.06
2022-09-18T02:46:43.981Z,9.95
2022-09-18T02:51:07.783Z,9.85
2022-09-18T02:55:11.807Z,9.74
2022-09-18T02:59:26.206Z,9.62
2022-09-18T03:03:28.451Z,9.43
2022-09-18T03:07:36.931Z,9.37
2022-09-18T03:11:44.745Z,9.33
2022-09-18T03:15:46.287Z,9.34
2022-09-18T03:19:47.591Z,9.32
2022-09-18T03:23:55.810Z,9.34
2022-09-18T03:28:03.873Z,9.31
2022-09-18T03:32:11.821Z,9.31
2022-09-18T03:36:13.434Z,9.32
2022-09-18T03:40:22.888Z,9.33
2022-09-18T03:44:30.885Z,9.34
2022-09-18T03:48:32.177Z,9.34
2022-09-18T03:52:34.300Z,9.29
2022-09-18T03:56:38.521Z,9.23
2022-09-18T04:00:39.840Z,9.18
2022-09-18T04:04:47.828Z,9.10
2022-09-18T04:08:49.985Z,9.03
2022-09-18T04:12:51.365Z,8.98
2022-09-18T04:16:52.665Z,8.86
2022-09-18T04:20:53.968Z,8.76
2022-09-18T04:24:55.420Z,8.70
2022-09-18T04:28:56.917Z,8.60
2022-09-18T04:33:04.914Z,8.53
2022-09-18T04:37:12.797Z,8.45
2022-09-18T04:41:14.161Z,8.43
2022-09-18T04:45:15.594Z,8.40
2022-09-18T04:49:17.393Z,8.34
2022-09-18T04:53:18.860Z,8.29
2022-09-18T04:57:20.272Z,8.24
2022-09-18T05:01:21.626Z,8.16
2022-09-18T05:05:23.033Z,8.14
2022-09-18T05:09:24.433Z,8.07
2022-09-18T05:13:26.250Z,8.03
2022-09-18T05:17:27.527Z,8.03
2022-09-18T05:21:28.904Z,8.02
2022-09-18T05:25:31.103Z,8.02
2022-09-18T05:29:38.942Z,8.01
2022-09-18T05:33:41.668Z,7.98
2022-09-18T05:37:42.974Z,7.91
2022-09-18T05:41:44.400Z,7.93
2022-09-18T05:45:46.395Z,8.00
2022-09-18T05:49:47.699Z,7.97
2022-09-18T05:53:49.277Z,8.12
2022-09-18T05:57:54.161Z,8.26
2022-09-18T06:02:01.992Z,8.33
2022-09-18T06:06:03.501Z,8.53
2022-09-18T06:10:11.959Z,8.63
2022-09-18T06:14:13.298Z,8.79
2022-09-18T06:18:15.107Z,9.14
2022-09-18T06:22:16.435Z,9.51
2022-09-18T06:26:17.975Z,9.81
2022-09-18T06:30:19.237Z,9.97
2022-09-18T06:34:20.553Z,10.20
2022-09-18T06:38:21.849Z,10.55
2022-09-18T06:42:23.221Z,10.82
2022-09-18T06:46:24.796Z,11.03
2022-09-18T06:50:26.258Z,10.93
2022-09-18T06:54:27.592Z,11.27
2022-09-18T06:58:36.242Z,11.78
2022-09-18T07:02:37.869Z,12.31
2022-09-18T07:06:45.867Z,12.68
2022-09-18T07:10:53.881Z,12.70
2022-09-18T07:14:55.379Z,12.46
2022-09-18T07:18:57.133Z,12.32
2022-09-18T07:22:59.591Z,12.13
2022-09-18T07:27:00.847Z,12.09
2022-09-18T07:31:03.152Z,12.45
2022-09-18T07:35:04.710Z,12.98
2022-09-18T07:39:05.998Z,13.48
2022-09-18T07:43:08.906Z,13.87
2022-09-18T07:47:11.673Z,14.28
2022-09-18T07:51:13.118Z,14.54
2022-09-18T07:55:14.489Z,14.73
2022-09-18T07:59:21.957Z,14.70
2022-09-18T08:03:25.279Z,14.87
2022-09-18T08:07:26.545Z,15.12
2022-09-18T08:11:34.258Z,15.49
2022-09-18T08:15:37.629Z,15.85
2022-09-18T08:19:39.066Z,16.13
2022-09-18T08:23:40.369Z,15.53
2022-09-18T08:27:42.370Z,14.85
2022-09-18T08:31:44.136Z,14.71
2022-09-18T08:35:45.556Z,14.86
2022-09-18T08:39:46.841Z,15.21
2022-09-18T08:44:13.971Z,15.68
2022-09-18T08:48:25.386Z,15.63
2022-09-18T08:52:28.469Z,15.58
2022-09-18T08:56:30.057Z,15.45
2022-09-18T09:00:41.644Z,15.34
2022-09-18T09:04:43.633Z,15.21
2022-09-18T09:09:14.901Z,15.12
2022-09-18T09:13:18.952Z,15.31
2022-09-18T09:17:37.812Z,15.39
2022-09-18T09:21:39.094Z,15.39
2022-09-18T09:25:48.001Z,15.36
2022-09-18T09:29:52.188Z,15.43
2022-09-18T09:34:07.422Z,15.64
2022-09-18T09:38:28.342Z,15.90
2022-09-18T09:42:42.221Z,15.94
2022-09-18T09:47:05.085Z,16.10
2022-09-18T09:51:32.953Z,16.16
2022-09-18T09:55:53.328Z,16.27
2022-09-18T09:59:54.633Z,16.28
2022-09-18T10:04:20.947Z,16.11
2022-09-18T10:08:27.420Z,16.21
2022-09-18T10:12:47.457Z,15.94
2022-09-18T10:16:51.118Z,16.18
2022-09-18T10:20:56.226Z,16.37
2022-09-18T10:25:00.920Z,16.47
2022-09-18T10:29:02.297Z,16.61
2022-09-18T10:33:03.733Z,16.52
2022-09-18T10:37:05.911Z,16.39
2022-09-18T10:41:18.086Z,16.18
2022-09-18T10:45:24.941Z,15.84
2022-09-18T10:49:28.973Z,15.81
2022-09-18T10:53:35.041Z,15.77
2022-09-18T10:57:44.035Z,15.67
2022-09-18T11:01:45.353Z,15.80
2022-09-18T11:05:49.080Z,15.76
2022-09-18T11:09:50.652Z,15.69
2022-09-18T11:13:59.624Z,15.85
2022-09-18T11:18:02.536Z,15.89
2022-09-18T11:22:05.948Z,15.98
2022-09-18T11:26:12.275Z,15.96
2022-09-18T11:30:24.039Z,15.78
2022-09-18T11:34:25.400Z,15.71
2022-09-18T11:38:39.078Z,15.74
2022-09-18T11:42:44.983Z,15.80
2022-09-18T11:46:58.392Z,16.06
2022-09-18T11:51:02.406Z,16.29
2022-09-18T11:55:16.028Z,16.61
2022-09-18T11:59:37.559Z,16.85
2022-09-18T12:03:55.248Z,16.79
2022-09-18T12:07:58.301Z,16.58
2022-09-18T12:12:03.309Z,16.49
2022-09-18T12:16:14.034Z,16.58
2022-09-18T12:20:22.668Z,17.18
2022-09-18T12:24:24.182Z,17.35
2022-09-18T12:28:33.749Z,17.41
2022-09-18T12:32:41.997Z,17.50
2022-09-18T12:36:43.240Z,17.24
2022-09-18T12:40:58.653Z,16.83
2022-09-18T12:45:14.915Z,16.59
2022-09-18T12:49:19.289Z,16.47
2022-09-18T12:53:20.706Z,16.61
2022-09-18T12:57:30.216Z,16.61
2022-09-18T13:01:34.928Z,16.89
2022-09-18T13:05:55.111Z,17.15
2022-09-18T13:10:03.176Z,17.39
2022-09-18T13:14:26.620Z,17.43
2022-09-18T13:18:41.013Z,17.28
2022-09-18T13:22:45.234Z,17.35
2022-09-18T13:26:47.928Z,17.40
2022-09-18T13:31:09.618Z,17.41
2022-09-18T13:35:13.986Z,17.43
2022-09-18T13:39:35.513Z,17.44
2022-09-18T13:43:52.229Z,17.48
2022-09-18T13:47:56.680Z,17.36
2022-09-18T13:52:16.747Z,17.14
2022-09-18T13:56:18.097Z,16.97
2022-09-18T14:00:19.403Z,16.90
2022-09-18T14:04:39.200Z,17.06
2022-09-18T14:08:40.561Z,17.17
2022-09-18T14:12:41.844Z,17.21
2022-09-18T14:16:44.621Z,17.26
2022-09-18T14:20:51.267Z,17.30
2022-09-18T14:24:59.035Z,17.28
2022-09-18T14:29:18.711Z,17.15
2022-09-18T14:33:27.538Z,17.21
2022-09-18T14:37:36.296Z,17.40
2022-09-18T14:41:38.360Z,17.09
2022-09-18T14:45:40.324Z,16.91
2022-09-18T14:49:42.852Z,16.79
2022-09-18T14:53:53.076Z,16.92
2022-09-18T14:57:57.156Z,17.20
2022-09-18T15:02:24.059Z,17.24
2022-09-18T15:06:34.624Z,17.07
2022-09-18T15:10:38.641Z,17.01
2022-09-18T15:14:45.585Z,17.16
2022-09-18T15:18:50.897Z,17.22
2022-09-18T15:22:53.394Z,17.52
2022-09-18T15:26:56.972Z,17.64
2022-09-18T15:31:00.939Z,17.53
2022-09-18T15:35:02.676Z,17.46
2022-09-18T15:39:05.756Z,17.11
2022-09-18T15:43:27.041Z,16.84
2022-09-18T15:47:28.464Z,16.70
2022-09-18T15:51:31.068Z,17.01
2022-09-18T15:55:53.995Z,17.02
2022-09-18T15:59:57.248Z,17.15
2022-09-18T16:04:04.471Z,17.20
2022-09-18T16:08:16.687Z,17.04
2022-09-18T16:12:34.685Z,16.99
2022-09-18T16:16:36.498Z,16.64
2022-09-18T16:20:42.454Z,16.33
2022-09-18T16:24:43.786Z,16.06
2022-09-18T16:28:50.358Z,16.45
2022-09-18T16:32:59.131Z,16.65
2022-09-18T16:37:00.412Z,16.29
2022-09-18T16:41:08.276Z,16.06
2022-09-18T16:45:10.184Z,15.82
2022-09-18T16:49:13.276Z,15.70
2022-09-18T16:53:15.043Z,15.55
2022-09-18T16:57:18.712Z,15.39
2022-09-18T17:01:36.252Z,15.28
2022-09-18T17:05:49.733Z,15.16
2022-09-18T17:09:58.197Z,15.06
2022-09-18T17:14:13.187Z,14.96
2022-09-18T17:18:14.630Z,14.87
2022-09-18T17:22:18.191Z,14.79
2022-09-18T17:26:23.088Z,14.70
2022-09-18T17:30:25.348Z,14.65
2022-09-18T17:34:26.712Z,14.60
2022-09-18T17:38:28.127Z,14.57
2022-09-18T17:42:29.430Z,14.48
2022-09-18T17:46:30.738Z,14.43
2022-09-18T17:50:33.688Z,14.36
2022-09-18T17:54:36.506Z,14.32
2022-09-18T17:58:40.812Z,14.24
2022-09-18T18:02:42.236Z,14.22
2022-09-18T18:06:46.053Z,14.24
2022-09-18T18:10:47.329Z,14.21
2022-09-18T18:14:48.593Z,14.15
2022-09-18T18:18:51.285Z,14.10
2022-09-18T18:22:59.220Z,14.06
2022-09-18T18:27:00.683Z,14.07
2022-09-18T18:31:05.747Z,14.03
2022-09-18T18:35:14.395Z,13.95
2022-09-18T18:39:15.893Z,13.91
2022-09-18T18:43:17.180Z,13.89
2022-09-18T18:47:20.338Z,13.85
2022-09-18T18:51:21.835Z,13.83
2022-09-18T18:55:23.225Z,13.81
2022-09-18T18:59:25.549Z,13.81
2022-09-18T19:03:26.985Z,13.79
2022-09-18T19:07:31.645Z,13.81
2022-09-18T19:11:40.204Z,13.79
2022-09-18T19:15:41.521Z,13.78
2022-09-18T19:19:42.816Z,13.75
2022-09-18T19:23:47.840Z,13.71
2022-09-18T19:27:49.152Z,13.73
2022-09-18T19:31:50.814Z,13.72
2022-09-18T19:35:52.180Z,13.67
2022-09-18T19:39:53.537Z,13.65
2022-09-18T19:43:55.036Z,13.65
2022-09-18T19:47:56.413Z,13.60
2022-09-18T19:51:58.703Z,13.57
2022-09-18T19:56:00.160Z,13.58
2022-09-18T20:00:01.842Z,13.57
2022-09-18T20:04:03.189Z,13.58
2022-09-18T20:08:13.277Z,13.56
2022-09-18T20:12:14.820Z,13.51
2022-09-18T20:16:17.629Z,13.48
2022-09-18T20:20:19.153Z,13.48
2022-09-18T20:24:20.529Z,13.50
2022-09-18T20:28:22.611Z,13.51
2022-09-18T20:32:24.191Z,13.53
2022-09-18T20:36:26.577Z,13.51
2022-09-18T20:40:28.090Z,13.49
2022-09-18T20:44:30.307Z,13.47
2022-09-18T20:48:35.505Z,13.47
2022-09-18T20:52:37.840Z,13.45
2022-09-18T20:56:46.737Z,13.46
2022-09-18T21:00:48.671Z,13.42
2022-09-18T21:04:52.301Z,13.43
2022-09-18T21:08:54.628Z,13.39
2022-09-18T21:12:58.024Z,13.39
2022-09-18T21:17:06.268Z,13.35
2022-09-18T21:21:09.067Z,13.33
2022-09-18T21:25:11.226Z,13.28
2022-09-18T21:29:13.901Z,13.23
2022-09-18T21:33:16.048Z,13.06
2022-09-18T21:37:18.481Z,12.88
2022-09-18T21:41:27.378Z,12.71
2022-09-18T21:45:37.402Z,12.54
2022-09-18T21:49:38.687Z,12.36
2022-09-18T21:53:41.269Z,12.27
2022-09-18T21:57:42.614Z,12.17
2022-09-18T22:01:50.574Z,12.14
2022-09-18T22:05:52.956Z,12.09
2022-09-18T22:09:54.305Z,12.03
2022-09-18T22:13:58.340Z,12.01
2022-09-18T22:18:00.049Z,12.01
2022-09-18T22:22:07.400Z,12.01
2022-09-18T22:26:24.797Z,12.02
2022-09-18T22:30:43.888Z,11.98
2022-09-18T22:34:55.833Z,11.92
2022-09-18T22:38:58.740Z,11.87
2022-09-18T22:43:24.028Z,11.83
2022-09-18T22:47:30.683Z,11.80
2022-09-18T22:51:47.479Z,11.74
2022-09-18T22:55:49.685Z,11.64
2022-09-18T22:59:50.988Z,11.60
2022-09-18T23:03:54.208Z,11.53
2022-09-18T23:08:02.352Z,11.45
2022-09-18T23:12:04.046Z,11.39
2022-09-18T23:16:13.384Z,11.32
2022-09-18T23:20:15.474Z,11.19
2022-09-18T23:24:16.916Z,11.09
2022-09-18T23:28:18.215Z,10.96
2022-09-18T23:36:37.454Z,10.66
2022-09-18T23:40:39.035Z,10.52
2022-09-18T23:44:40.488Z,10.35
2022-09-18T23:48:42.268Z,10.22
2022-09-18T23:52:50.449Z,10.05
2022-09-18T23:56:52.192Z,9.97
